sensor_id;sensor_type;location;lat;lon;timestamp;P1;durP1;ratioP1;P2;durP2;ratioP2
48423;SDS011;34232;42.502;26.014;2024-03-23T00:53:24;7.30;;;4.05;;
48423;SDS011;34232;42.502;26.014;2024-03-23T00:55:50;7.30;;;4.00;;
48423;SDS011;34232;42.502;26.014;2024-03-23T00:58:16;7.00;;;3.83;;
48423;SDS011;34232;42.502;26.014;2024-03-23T01:00:42;5.70;;;3.93;;
48423;SDS011;34232;42.502;26.014;2024-03-23T01:03:07;7.90;;;4.73;;
48423;SDS011;34232;42.502;26.014;2024-03-23T01:05:32;8.63;;;4.47;;
48423;SDS011;34232;42.502;26.014;2024-03-23T01:07:58;7.43;;;4.50;;
48423;SDS011;34232;42.502;26.014;2024-03-23T01:10:23;6.87;;;3.97;;
48423;SDS011;34232;42.502;26.014;2024-03-23T01:12:49;7.30;;;4.80;;
48423;SDS011;34232;42.502;26.014;2024-03-23T01:15:14;8.57;;;4.63;;
48423;SDS011;34232;42.502;26.014;2024-03-23T01:17:40;6.90;;;4.13;;
48423;SDS011;34232;42.502;26.014;2024-03-23T01:20:05;6.27;;;4.20;;
48423;SDS011;34232;42.502;26.014;2024-03-23T01:22:31;6.47;;;4.03;;
48423;SDS011;34232;42.502;26.014;2024-03-23T01:24:58;7.15;;;4.25;;
48423;SDS011;34232;42.502;26.014;2024-03-23T01:27:23;6.03;;;3.53;;
48423;SDS011;34232;42.502;26.014;2024-03-23T01:29:48;7.27;;;3.40;;
48423;SDS011;34232;42.502;26.014;2024-03-23T01:32:14;7.17;;;3.60;;
48423;SDS011;34232;42.502;26.014;2024-03-23T01:34:43;8.63;;;4.50;;
48423;SDS011;34232;42.502;26.014;2024-03-23T01:37:09;7.50;;;3.83;;
48423;SDS011;34232;42.502;26.014;2024-03-23T01:39:34;6.87;;;3.77;;
48423;SDS011;34232;42.502;26.014;2024-03-23T01:41:59;5.83;;;3.30;;
48423;SDS011;34232;42.502;26.014;2024-03-23T01:44:25;8.43;;;3.80;;
48423;SDS011;34232;42.502;26.014;2024-03-23T01:46:50;5.80;;;3.27;;
48423;SDS011;34232;42.502;26.014;2024-03-23T01:49:16;6.20;;;3.50;;
48423;SDS011;34232;42.502;26.014;2024-03-23T01:51:42;5.88;;;3.95;;
48423;SDS011;34232;42.502;26.014;2024-03-23T01:54:08;7.35;;;3.88;;
48423;SDS011;34232;42.502;26.014;2024-03-23T01:56:34;6.97;;;4.23;;
48423;SDS011;34232;42.502;26.014;2024-03-23T01:59:01;7.23;;;4.50;;
48423;SDS011;34232;42.502;26.014;2024-03-23T02:01:27;8.20;;;4.10;;
48423;SDS011;34232;42.502;26.014;2024-03-23T02:03:52;5.63;;;4.17;;
48423;SDS011;34232;42.502;26.014;2024-03-23T02:06:17;9.60;;;4.77;;
48423;SDS011;34232;42.502;26.014;2024-03-23T02:08:43;5.87;;;4.07;;
48423;SDS011;34232;42.502;26.014;2024-03-23T02:11:09;9.30;;;4.13;;
48423;SDS011;34232;42.502;26.014;2024-03-23T02:13:34;10.00;;;4.10;;
48423;SDS011;34232;42.502;26.014;2024-03-23T02:16:00;10.07;;;4.97;;
48423;SDS011;34232;42.502;26.014;2024-03-23T02:18:25;8.20;;;3.77;;
48423;SDS011;34232;42.502;26.014;2024-03-23T02:20:51;12.30;;;5.50;;
48423;SDS011;34232;42.502;26.014;2024-03-23T02:23:17;13.30;;;6.23;;
48423;SDS011;34232;42.502;26.014;2024-03-23T02:25:46;10.73;;;5.90;;
48423;SDS011;34232;42.502;26.014;2024-03-23T02:28:12;8.23;;;4.60;;
48423;SDS011;34232;42.502;26.014;2024-03-23T02:30:37;9.07;;;5.00;;
48423;SDS011;34232;42.502;26.014;2024-03-23T02:33:03;8.00;;;4.07;;
48423;SDS011;34232;42.502;26.014;2024-03-23T02:35:29;9.80;;;4.67;;
48423;SDS011;34232;42.502;26.014;2024-03-23T02:37:55;13.03;;;5.33;;
48423;SDS011;34232;42.502;26.014;2024-03-23T02:40:22;9.10;;;4.32;;
48423;SDS011;34232;42.502;26.014;2024-03-23T02:42:48;9.80;;;4.18;;
48423;SDS011;34232;42.502;26.014;2024-03-23T02:45:14;6.80;;;4.10;;
48423;SDS011;34232;42.502;26.014;2024-03-23T02:47:39;10.40;;;4.83;;
48423;SDS011;34232;42.502;26.014;2024-03-23T02:50:05;10.80;;;4.83;;
48423;SDS011;34232;42.502;26.014;2024-03-23T02:52:31;8.73;;;5.30;;
48423;SDS011;34232;42.502;26.014;2024-03-23T02:54:56;6.47;;;3.40;;
48423;SDS011;34232;42.502;26.014;2024-03-23T02:57:22;9.27;;;3.43;;
48423;SDS011;34232;42.502;26.014;2024-03-23T02:59:47;8.77;;;4.83;;
48423;SDS011;34232;42.502;26.014;2024-03-23T03:02:13;9.03;;;4.30;;
48423;SDS011;34232;42.502;26.014;2024-03-23T03:04:40;9.10;;;4.57;;
48423;SDS011;34232;42.502;26.014;2024-03-23T03:07:05;8.17;;;4.10;;
48423;SDS011;34232;42.502;26.014;2024-03-23T03:09:31;7.80;;;4.73;;
48423;SDS011;34232;42.502;26.014;2024-03-23T03:11:56;8.87;;;4.37;;
48423;SDS011;34232;42.502;26.014;2024-03-23T03:14:22;8.00;;;4.53;;
48423;SDS011;34232;42.502;26.014;2024-03-23T03:16:47;8.07;;;4.70;;
48423;SDS011;34232;42.502;26.014;2024-03-23T03:19:13;11.03;;;5.10;;
48423;SDS011;34232;42.502;26.014;2024-03-23T03:21:38;8.70;;;5.00;;
48423;SDS011;34232;42.502;26.014;2024-03-23T03:24:05;10.90;;;5.23;;
48423;SDS011;34232;42.502;26.014;2024-03-23T03:26:31;8.80;;;4.93;;
48423;SDS011;34232;42.502;26.014;2024-03-23T03:28:57;11.70;;;5.30;;
48423;SDS011;34232;42.502;26.014;2024-03-23T03:31:22;6.63;;;4.00;;
48423;SDS011;34232;42.502;26.014;2024-03-23T03:33:49;8.97;;;4.47;;
48423;SDS011;34232;42.502;26.014;2024-03-23T03:36:14;9.18;;;5.70;;
48423;SDS011;34232;42.502;26.014;2024-03-23T03:38:40;9.63;;;5.17;;
48423;SDS011;34232;42.502;26.014;2024-03-23T03:41:05;9.13;;;5.03;;
48423;SDS011;34232;42.502;26.014;2024-03-23T03:43:34;8.23;;;4.63;;
48423;SDS011;34232;42.502;26.014;2024-03-23T03:46:00;8.30;;;4.43;;
48423;SDS011;34232;42.502;26.014;2024-03-23T03:48:26;8.43;;;4.25;;
48423;SDS011;34232;42.502;26.014;2024-03-23T03:50:52;8.40;;;5.53;;
48423;SDS011;34232;42.502;26.014;2024-03-23T03:53:18;9.85;;;4.55;;
48423;SDS011;34232;42.502;26.014;2024-03-23T03:55:44;10.33;;;4.63;;
48423;SDS011;34232;42.502;26.014;2024-03-23T03:58:09;9.97;;;5.33;;
48423;SDS011;34232;42.502;26.014;2024-03-23T04:00:35;6.80;;;3.73;;
48423;SDS011;34232;42.502;26.014;2024-03-23T04:03:01;7.37;;;4.00;;
48423;SDS011;34232;42.502;26.014;2024-03-23T04:05:26;8.37;;;4.97;;
48423;SDS011;34232;42.502;26.014;2024-03-23T04:07:52;8.97;;;4.70;;
48423;SDS011;34232;42.502;26.014;2024-03-23T04:10:19;6.78;;;4.28;;
48423;SDS011;34232;42.502;26.014;2024-03-23T04:12:44;8.80;;;4.07;;
48423;SDS011;34232;42.502;26.014;2024-03-23T04:15:11;7.75;;;4.30;;
48423;SDS011;34232;42.502;26.014;2024-03-23T04:17:36;9.10;;;5.23;;
48423;SDS011;34232;42.502;26.014;2024-03-23T04:20:02;8.47;;;4.37;;
48423;SDS011;34232;42.502;26.014;2024-03-23T04:22:36;8.20;;;5.17;;
48423;SDS011;34232;42.502;26.014;2024-03-23T04:25:05;8.37;;;4.50;;
48423;SDS011;34232;42.502;26.014;2024-03-23T04:27:38;9.63;;;5.73;;
48423;SDS011;34232;42.502;26.014;2024-03-23T04:30:04;7.47;;;4.67;;
48423;SDS011;34232;42.502;26.014;2024-03-23T04:32:35;10.63;;;6.10;;
48423;SDS011;34232;42.502;26.014;2024-03-23T04:35:01;10.93;;;5.03;;
48423;SDS011;34232;42.502;26.014;2024-03-23T04:37:28;9.52;;;5.07;;
48423;SDS011;34232;42.502;26.014;2024-03-23T04:39:53;9.27;;;4.35;;
48423;SDS011;34232;42.502;26.014;2024-03-23T04:42:19;9.13;;;5.57;;
48423;SDS011;34232;42.502;26.014;2024-03-23T04:44:44;11.90;;;5.67;;
48423;SDS011;34232;42.502;26.014;2024-03-23T04:47:10;9.70;;;5.27;;
48423;SDS011;34232;42.502;26.014;2024-03-23T04:49:36;9.07;;;4.83;;
48423;SDS011;34232;42.502;26.014;2024-03-23T04:52:02;9.67;;;5.33;;
48423;SDS011;34232;42.502;26.014;2024-03-23T04:54:29;9.53;;;4.90;;
48423;SDS011;34232;42.502;26.014;2024-03-23T04:56:54;8.93;;;4.90;;
48423;SDS011;34232;42.502;26.014;2024-03-23T04:59:20;10.47;;;5.47;;
48423;SDS011;34232;42.502;26.014;2024-03-23T05:01:45;8.93;;;4.93;;
48423;SDS011;34232;42.502;26.014;2024-03-23T05:04:11;14.77;;;5.27;;
48423;SDS011;34232;42.502;26.014;2024-03-23T05:06:36;13.80;;;5.80;;
48423;SDS011;34232;42.502;26.014;2024-03-23T05:09:02;10.87;;;5.73;;
48423;SDS011;34232;42.502;26.014;2024-03-23T05:11:31;8.20;;;5.27;;
48423;SDS011;34232;42.502;26.014;2024-03-23T05:13:57;10.98;;;7.40;;
48423;SDS011;34232;42.502;26.014;2024-03-23T05:16:22;13.27;;;7.27;;
48423;SDS011;34232;42.502;26.014;2024-03-23T05:18:48;12.60;;;6.67;;
48423;SDS011;34232;42.502;26.014;2024-03-23T05:21:13;11.83;;;7.23;;
48423;SDS011;34232;42.502;26.014;2024-03-23T05:23:39;13.67;;;7.47;;
48423;SDS011;34232;42.502;26.014;2024-03-23T05:26:04;20.37;;;9.13;;
48423;SDS011;34232;42.502;26.014;2024-03-23T05:28:29;17.20;;;10.47;;
48423;SDS011;34232;42.502;26.014;2024-03-23T05:30:56;20.27;;;8.85;;
48423;SDS011;34232;42.502;26.014;2024-03-23T05:33:22;18.60;;;12.17;;
48423;SDS011;34232;42.502;26.014;2024-03-23T05:35:55;21.70;;;12.63;;
48423;SDS011;34232;42.502;26.014;2024-03-23T05:40:57;23.63;;;15.73;;
48423;SDS011;34232;42.502;26.014;2024-03-23T05:43:23;24.97;;;16.93;;
48423;SDS011;34232;42.502;26.014;2024-03-23T05:45:55;35.15;;;22.15;;
48423;SDS011;34232;42.502;26.014;2024-03-23T05:48:21;28.43;;;19.30;;
48423;SDS011;34232;42.502;26.014;2024-03-23T05:50:47;27.93;;;14.63;;
48423;SDS011;34232;42.502;26.014;2024-03-23T05:53:14;23.88;;;14.98;;
48423;SDS011;34232;42.502;26.014;2024-03-23T05:55:43;25.05;;;15.02;;
48423;SDS011;34232;42.502;26.014;2024-03-23T05:58:09;23.60;;;14.97;;
48423;SDS011;34232;42.502;26.014;2024-03-23T06:00:35;26.20;;;15.95;;
48423;SDS011;34232;42.502;26.014;2024-03-23T06:03:01;27.30;;;16.23;;
48423;SDS011;34232;42.502;26.014;2024-03-23T06:05:26;30.63;;;16.17;;
48423;SDS011;34232;42.502;26.014;2024-03-23T06:07:52;21.17;;;14.67;;
48423;SDS011;34232;42.502;26.014;2024-03-23T06:10:18;20.63;;;13.70;;
48423;SDS011;34232;42.502;26.014;2024-03-23T06:12:43;22.38;;;14.10;;
48423;SDS011;34232;42.502;26.014;2024-03-23T06:15:11;20.98;;;12.70;;
48423;SDS011;34232;42.502;26.014;2024-03-23T06:17:37;19.35;;;11.32;;
48423;SDS011;34232;42.502;26.014;2024-03-23T06:20:03;17.67;;;10.37;;
48423;SDS011;34232;42.502;26.014;2024-03-23T06:22:31;14.77;;;9.27;;
48423;SDS011;34232;42.502;26.014;2024-03-23T06:24:56;14.60;;;9.00;;
48423;SDS011;34232;42.502;26.014;2024-03-23T06:27:22;13.47;;;8.50;;
48423;SDS011;34232;42.502;26.014;2024-03-23T06:29:47;13.23;;;9.03;;
48423;SDS011;34232;42.502;26.014;2024-03-23T06:32:13;13.67;;;8.87;;
48423;SDS011;34232;42.502;26.014;2024-03-23T06:34:40;13.33;;;9.37;;
48423;SDS011;34232;42.502;26.014;2024-03-23T06:37:06;15.10;;;10.00;;
48423;SDS011;34232;42.502;26.014;2024-03-23T06:39:34;13.38;;;8.90;;
48423;SDS011;34232;42.502;26.014;2024-03-23T06:42:00;15.43;;;9.48;;
48423;SDS011;34232;42.502;26.014;2024-03-23T06:44:26;49.43;;;34.93;;
48423;SDS011;34232;42.502;26.014;2024-03-23T06:46:55;22.88;;;16.33;;
48423;SDS011;34232;42.502;26.014;2024-03-23T06:49:21;16.05;;;10.27;;
48423;SDS011;34232;42.502;26.014;2024-03-23T06:51:47;18.92;;;10.60;;
48423;SDS011;34232;42.502;26.014;2024-03-23T06:54:12;16.40;;;10.27;;
48423;SDS011;34232;42.502;26.014;2024-03-23T06:56:38;13.67;;;9.53;;
48423;SDS011;34232;42.502;26.014;2024-03-23T06:59:03;16.33;;;9.33;;
48423;SDS011;34232;42.502;26.014;2024-03-23T07:01:29;13.17;;;8.37;;
48423;SDS011;34232;42.502;26.014;2024-03-23T07:03:54;14.27;;;7.90;;
48423;SDS011;34232;42.502;26.014;2024-03-23T07:06:20;11.17;;;8.17;;
48423;SDS011;34232;42.502;26.014;2024-03-23T07:08:46;11.43;;;7.77;;
48423;SDS011;34232;42.502;26.014;2024-03-23T07:11:12;11.67;;;6.90;;
48423;SDS011;34232;42.502;26.014;2024-03-23T07:13:37;12.27;;;7.07;;
48423;SDS011;34232;42.502;26.014;2024-03-23T07:16:04;10.35;;;7.05;;
48423;SDS011;34232;42.502;26.014;2024-03-23T07:18:29;12.23;;;7.43;;
48423;SDS011;34232;42.502;26.014;2024-03-23T07:20:55;10.33;;;7.17;;
48423;SDS011;34232;42.502;26.014;2024-03-23T07:23:22;9.63;;;7.15;;
48423;SDS011;34232;42.502;26.014;2024-03-23T07:25:58;11.02;;;6.22;;
48423;SDS011;34232;42.502;26.014;2024-03-23T07:28:27;9.15;;;6.20;;
48423;SDS011;34232;42.502;26.014;2024-03-23T07:31:03;10.75;;;7.38;;
48423;SDS011;34232;42.502;26.014;2024-03-23T07:33:30;10.27;;;6.35;;
48423;SDS011;34232;42.502;26.014;2024-03-23T07:35:56;10.43;;;6.20;;
48423;SDS011;34232;42.502;26.014;2024-03-23T07:38:22;9.97;;;6.57;;
48423;SDS011;34232;42.502;26.014;2024-03-23T07:40:47;7.37;;;4.57;;
48423;SDS011;34232;42.502;26.014;2024-03-23T07:43:15;7.47;;;5.78;;
48423;SDS011;34232;42.502;26.014;2024-03-23T07:45:40;8.27;;;6.63;;
48423;SDS011;34232;42.502;26.014;2024-03-23T07:48:06;9.17;;;6.43;;
48423;SDS011;34232;42.502;26.014;2024-03-23T07:50:31;8.50;;;5.83;;
48423;SDS011;34232;42.502;26.014;2024-03-23T07:52:57;11.43;;;7.00;;
48423;SDS011;34232;42.502;26.014;2024-03-23T07:55:22;9.37;;;5.90;;
48423;SDS011;34232;42.502;26.014;2024-03-23T07:57:48;11.23;;;5.53;;
48423;SDS011;34232;42.502;26.014;2024-03-23T08:00:16;8.07;;;5.82;;
48423;SDS011;34232;42.502;26.014;2024-03-23T08:02:41;9.87;;;5.90;;
48423;SDS011;34232;42.502;26.014;2024-03-23T08:05:07;16.47;;;6.33;;
48423;SDS011;34232;42.502;26.014;2024-03-23T08:07:33;9.38;;;5.00;;
48423;SDS011;34232;42.502;26.014;2024-03-23T08:09:58;8.80;;;5.30;;
48423;SDS011;34232;42.502;26.014;2024-03-23T08:12:24;9.70;;;4.63;;
48423;SDS011;34232;42.502;26.014;2024-03-23T08:14:49;8.57;;;4.87;;
48423;SDS011;34232;42.502;26.014;2024-03-23T08:17:15;8.07;;;5.20;;
48423;SDS011;34232;42.502;26.014;2024-03-23T08:19:40;7.47;;;5.23;;
48423;SDS011;34232;42.502;26.014;2024-03-23T08:22:06;10.43;;;5.43;;
48423;SDS011;34232;42.502;26.014;2024-03-23T08:24:31;19.97;;;6.53;;
48423;SDS011;34232;42.502;26.014;2024-03-23T08:26:57;7.47;;;5.37;;
48423;SDS011;34232;42.502;26.014;2024-03-23T08:29:22;9.43;;;6.10;;
48423;SDS011;34232;42.502;26.014;2024-03-23T08:31:47;7.23;;;4.80;;
48423;SDS011;34232;42.502;26.014;2024-03-23T08:34:13;6.00;;;4.23;;
48423;SDS011;34232;42.502;26.014;2024-03-23T08:36:38;6.23;;;4.17;;
48423;SDS011;34232;42.502;26.014;2024-03-23T08:39:04;7.27;;;4.63;;
48423;SDS011;34232;42.502;26.014;2024-03-23T08:41:29;5.37;;;4.77;;
48423;SDS011;34232;42.502;26.014;2024-03-23T08:43:55;7.20;;;5.10;;
48423;SDS011;34232;42.502;26.014;2024-03-23T08:46:20;6.87;;;4.70;;
48423;SDS011;34232;42.502;26.014;2024-03-23T08:48:46;7.23;;;4.90;;
48423;SDS011;34232;42.502;26.014;2024-03-23T08:51:14;6.20;;;4.95;;
48423;SDS011;34232;42.502;26.014;2024-03-23T08:53:42;9.77;;;5.60;;
48423;SDS011;34232;42.502;26.014;2024-03-23T08:56:08;8.55;;;6.07;;
48423;SDS011;34232;42.502;26.014;2024-03-23T08:58:35;5.38;;;4.82;;
48423;SDS011;34232;42.502;26.014;2024-03-23T09:01:06;6.88;;;5.20;;
48423;SDS011;34232;42.502;26.014;2024-03-23T09:03:33;7.18;;;4.97;;
48423;SDS011;34232;42.502;26.014;2024-03-23T09:05:59;8.10;;;5.32;;
48423;SDS011;34232;42.502;26.014;2024-03-23T09:08:25;4.93;;;4.43;;
48423;SDS011;34232;42.502;26.014;2024-03-23T09:10:51;4.33;;;3.10;;
48423;SDS011;34232;42.502;26.014;2024-03-23T09:13:17;6.00;;;3.55;;
48423;SDS011;34232;42.502;26.014;2024-03-23T09:15:51;5.43;;;4.30;;
48423;SDS011;34232;42.502;26.014;2024-03-23T09:18:21;7.50;;;4.78;;
48423;SDS011;34232;42.502;26.014;2024-03-23T09:20:46;3.70;;;3.37;;
48423;SDS011;34232;42.502;26.014;2024-03-23T09:23:12;3.90;;;3.30;;
48423;SDS011;34232;42.502;26.014;2024-03-23T09:25:37;4.57;;;3.53;;
48423;SDS011;34232;42.502;26.014;2024-03-23T09:28:04;3.30;;;2.88;;
48423;SDS011;34232;42.502;26.014;2024-03-23T09:30:36;4.68;;;3.45;;
48423;SDS011;34232;42.502;26.014;2024-03-23T09:33:07;3.67;;;3.30;;
48423;SDS011;34232;42.502;26.014;2024-03-23T09:35:36;6.97;;;3.80;;
48423;SDS011;34232;42.502;26.014;2024-03-23T09:38:02;4.68;;;3.70;;
48423;SDS011;34232;42.502;26.014;2024-03-23T09:40:27;4.80;;;3.33;;
48423;SDS011;34232;42.502;26.014;2024-03-23T09:42:53;3.00;;;2.70;;
48423;SDS011;34232;42.502;26.014;2024-03-23T09:45:23;3.17;;;2.70;;
48423;SDS011;34232;42.502;26.014;2024-03-23T09:47:52;8.27;;;3.00;;
48423;SDS011;34232;42.502;26.014;2024-03-23T09:50:18;4.67;;;3.33;;
48423;SDS011;34232;42.502;26.014;2024-03-23T09:52:45;3.90;;;2.90;;
48423;SDS011;34232;42.502;26.014;2024-03-23T09:55:11;2.65;;;2.35;;
48423;SDS011;34232;42.502;26.014;2024-03-23T09:57:37;2.23;;;2.03;;
48423;SDS011;34232;42.502;26.014;2024-03-23T10:00:02;3.60;;;2.33;;
48423;SDS011;34232;42.502;26.014;2024-03-23T10:02:28;2.58;;;2.38;;
48423;SDS011;34232;42.502;26.014;2024-03-23T10:04:54;2.60;;;2.40;;
48423;SDS011;34232;42.502;26.014;2024-03-23T10:07:20;2.90;;;2.60;;
48423;SDS011;34232;42.502;26.014;2024-03-23T10:09:47;4.68;;;2.95;;
48423;SDS011;34232;42.502;26.014;2024-03-23T10:12:14;7.47;;;2.80;;
48423;SDS011;34232;42.502;26.014;2024-03-23T10:14:42;2.80;;;2.60;;
48423;SDS011;34232;42.502;26.014;2024-03-23T10:17:26;2.47;;;2.03;;
48423;SDS011;34232;42.502;26.014;2024-03-23T10:19:51;4.75;;;2.80;;
48423;SDS011;34232;42.502;26.014;2024-03-23T10:22:18;2.95;;;2.47;;
48423;SDS011;34232;42.502;26.014;2024-03-23T10:24:45;3.90;;;2.63;;
48423;SDS011;34232;42.502;26.014;2024-03-23T10:27:17;6.35;;;3.33;;
48423;SDS011;34232;42.502;26.014;2024-03-23T10:29:44;4.95;;;2.80;;
48423;SDS011;34232;42.502;26.014;2024-03-23T10:32:14;3.70;;;2.50;;
48423;SDS011;34232;42.502;26.014;2024-03-23T10:34:43;2.72;;;2.53;;
48423;SDS011;34232;42.502;26.014;2024-03-23T10:37:08;4.55;;;3.55;;
48423;SDS011;34232;42.502;26.014;2024-03-23T10:39:36;3.22;;;2.92;;
48423;SDS011;34232;42.502;26.014;2024-03-23T10:42:03;6.97;;;2.67;;
48423;SDS011;34232;42.502;26.014;2024-03-23T10:44:30;2.17;;;1.98;;
48423;SDS011;34232;42.502;26.014;2024-03-23T10:46:57;4.57;;;1.83;;
48423;SDS011;34232;42.502;26.014;2024-03-23T10:49:32;2.22;;;1.83;;
48423;SDS011;34232;42.502;26.014;2024-03-23T10:52:02;1.25;;;1.13;;
48423;SDS011;34232;42.502;26.014;2024-03-23T10:54:32;3.13;;;1.80;;
48423;SDS011;34232;42.502;26.014;2024-03-23T10:59:31;2.67;;;1.73;;
48423;SDS011;34232;42.502;26.014;2024-03-23T11:01:57;1.98;;;1.58;;
48423;SDS011;34232;42.502;26.014;2024-03-23T11:04:34;2.33;;;2.13;;
48423;SDS011;34232;42.502;26.014;2024-03-23T11:07:00;2.25;;;2.10;;
48423;SDS011;34232;42.502;26.014;2024-03-23T11:09:48;2.92;;;2.63;;
48423;SDS011;34232;42.502;26.014;2024-03-23T11:17:18;3.88;;;2.35;;
48423;SDS011;34232;42.502;26.014;2024-03-23T11:19:46;6.22;;;2.45;;
48423;SDS011;34232;42.502;26.014;2024-03-23T11:22:37;3.67;;;1.23;;
48423;SDS011;34232;42.502;26.014;2024-03-23T11:25:24;1.48;;;1.25;;
48423;SDS011;34232;42.502;26.014;2024-03-23T11:27:51;1.10;;;1.02;;
48423;SDS011;34232;42.502;26.014;2024-03-23T11:30:24;1.23;;;0.82;;
48423;SDS011;34232;42.502;26.014;2024-03-23T11:32:55;2.97;;;1.02;;
48423;SDS011;34232;42.502;26.014;2024-03-23T11:35:28;2.20;;;1.30;;
48423;SDS011;34232;42.502;26.014;2024-03-23T11:40:30;1.02;;;1.00;;
48423;SDS011;34232;42.502;26.014;2024-03-23T11:42:57;1.60;;;1.20;;
48423;SDS011;34232;42.502;26.014;2024-03-23T11:45:28;2.70;;;1.02;;
48423;SDS011;34232;42.502;26.014;2024-03-23T11:48:07;2.03;;;1.25;;
48423;SDS011;34232;42.502;26.014;2024-03-23T11:50:37;0.57;;;0.57;;
48423;SDS011;34232;42.502;26.014;2024-03-23T11:53:26;1.00;;;1.00;;
48423;SDS011;34232;42.502;26.014;2024-03-23T11:55:55;2.97;;;1.35;;
48423;SDS011;34232;42.502;26.014;2024-03-23T11:58:22;2.63;;;1.00;;
48423;SDS011;34232;42.502;26.014;2024-03-23T12:00:49;1.63;;;1.13;;
48423;SDS011;34232;42.502;26.014;2024-03-23T12:03:29;6.25;;;1.85;;
48423;SDS011;34232;42.502;26.014;2024-03-23T12:05:55;2.85;;;1.27;;
48423;SDS011;34232;42.502;26.014;2024-03-23T12:08:23;2.15;;;1.00;;
48423;SDS011;34232;42.502;26.014;2024-03-23T12:10:51;2.50;;;1.48;;
48423;SDS011;34232;42.502;26.014;2024-03-23T12:13:21;1.08;;;1.08;;
48423;SDS011;34232;42.502;26.014;2024-03-23T12:15:49;2.67;;;1.20;;
48423;SDS011;34232;42.502;26.014;2024-03-23T12:18:16;1.13;;;0.70;;
48423;SDS011;34232;42.502;26.014;2024-03-23T12:20:42;1.48;;;1.00;;
48423;SDS011;34232;42.502;26.014;2024-03-23T12:23:09;3.15;;;1.00;;
48423;SDS011;34232;42.502;26.014;2024-03-23T12:25:36;0.85;;;0.85;;
48423;SDS011;34232;42.502;26.014;2024-03-23T12:28:03;3.28;;;1.05;;
48423;SDS011;34232;42.502;26.014;2024-03-23T12:30:31;0.80;;;0.68;;
48423;SDS011;34232;42.502;26.014;2024-03-23T12:33:00;1.70;;;1.30;;
48423;SDS011;34232;42.502;26.014;2024-03-23T12:35:26;0.93;;;0.70;;
48423;SDS011;34232;42.502;26.014;2024-03-23T12:37:51;2.63;;;1.00;;
48423;SDS011;34232;42.502;26.014;2024-03-23T12:40:16;1.77;;;1.37;;
48423;SDS011;34232;42.502;26.014;2024-03-23T12:42:42;2.73;;;1.10;;
48423;SDS011;34232;42.502;26.014;2024-03-23T12:45:07;0.80;;;0.67;;
48423;SDS011;34232;42.502;26.014;2024-03-23T12:47:33;2.87;;;0.90;;
48423;SDS011;34232;42.502;26.014;2024-03-23T12:49:58;2.87;;;1.73;;
48423;SDS011;34232;42.502;26.014;2024-03-23T12:52:24;3.93;;;0.97;;
48423;SDS011;34232;42.502;26.014;2024-03-23T12:54:53;1.17;;;0.60;;
48423;SDS011;34232;42.502;26.014;2024-03-23T12:57:21;2.25;;;0.77;;
48423;SDS011;34232;42.502;26.014;2024-03-23T12:59:47;0.55;;;0.50;;
48423;SDS011;34232;42.502;26.014;2024-03-23T13:02:16;3.38;;;0.63;;
48423;SDS011;34232;42.502;26.014;2024-03-23T13:04:42;0.85;;;0.40;;
48423;SDS011;34232;42.502;26.014;2024-03-23T13:07:07;1.40;;;0.50;;
48423;SDS011;34232;42.502;26.014;2024-03-23T13:09:32;4.93;;;1.33;;
48423;SDS011;34232;42.502;26.014;2024-03-23T13:11:58;2.20;;;0.70;;
48423;SDS011;34232;42.502;26.014;2024-03-23T13:14:23;0.73;;;0.50;;
48423;SDS011;34232;42.502;26.014;2024-03-23T13:16:49;4.82;;;0.60;;
48423;SDS011;34232;42.502;26.014;2024-03-23T13:19:15;1.77;;;0.50;;
48423;SDS011;34232;42.502;26.014;2024-03-23T13:21:40;0.77;;;0.60;;
48423;SDS011;34232;42.502;26.014;2024-03-23T13:24:06;3.70;;;0.83;;
48423;SDS011;34232;42.502;26.014;2024-03-23T13:26:31;2.03;;;0.93;;
48423;SDS011;34232;42.502;26.014;2024-03-23T13:28:57;2.80;;;0.60;;
48423;SDS011;34232;42.502;26.014;2024-03-23T13:31:22;1.77;;;0.60;;
48423;SDS011;34232;42.502;26.014;2024-03-23T13:33:47;2.40;;;1.10;;
48423;SDS011;34232;42.502;26.014;2024-03-23T13:36:13;0.63;;;0.30;;
48423;SDS011;34232;42.502;26.014;2024-03-23T13:38:39;2.77;;;0.50;;
48423;SDS011;34232;42.502;26.014;2024-03-23T13:41:04;1.90;;;0.53;;
48423;SDS011;34232;42.502;26.014;2024-03-23T13:43:31;1.27;;;0.38;;
48423;SDS011;34232;42.502;26.014;2024-03-23T13:45:57;4.00;;;0.63;;
48423;SDS011;34232;42.502;26.014;2024-03-23T13:48:27;0.95;;;0.57;;
48423;SDS011;34232;42.502;26.014;2024-03-23T13:50:58;2.15;;;0.50;;
48423;SDS011;34232;42.502;26.014;2024-03-23T13:53:30;2.10;;;0.70;;
48423;SDS011;34232;42.502;26.014;2024-03-23T13:55:56;1.98;;;0.70;;
48423;SDS011;34232;42.502;26.014;2024-03-23T13:58:21;3.33;;;0.90;;
48423;SDS011;34232;42.502;26.014;2024-03-23T14:00:50;1.95;;;0.57;;
48423;SDS011;34232;42.502;26.014;2024-03-23T14:03:16;4.70;;;0.90;;
48423;SDS011;34232;42.502;26.014;2024-03-23T14:05:43;1.73;;;0.80;;
48423;SDS011;34232;42.502;26.014;2024-03-23T14:08:09;4.65;;;1.17;;
48423;SDS011;34232;42.502;26.014;2024-03-23T14:10:36;1.85;;;1.23;;
48423;SDS011;34232;42.502;26.014;2024-03-23T14:13:05;2.33;;;0.55;;
48423;SDS011;34232;42.502;26.014;2024-03-23T14:15:30;1.90;;;0.60;;
48423;SDS011;34232;42.502;26.014;2024-03-23T14:17:56;1.23;;;0.70;;
48423;SDS011;34232;42.502;26.014;2024-03-23T14:20:22;1.57;;;0.70;;
48423;SDS011;34232;42.502;26.014;2024-03-23T14:25:14;2.92;;;0.75;;
48423;SDS011;34232;42.502;26.014;2024-03-23T14:27:39;1.97;;;0.67;;
48423;SDS011;34232;42.502;26.014;2024-03-23T14:30:05;1.23;;;0.50;;
48423;SDS011;34232;42.502;26.014;2024-03-23T14:32:31;1.90;;;0.47;;
48423;SDS011;34232;42.502;26.014;2024-03-23T14:35:00;4.60;;;2.78;;
48423;SDS011;34232;42.502;26.014;2024-03-23T14:37:25;4.28;;;1.58;;
48423;SDS011;34232;42.502;26.014;2024-03-23T14:39:51;1.63;;;0.55;;
48423;SDS011;34232;42.502;26.014;2024-03-23T14:42:17;1.57;;;0.50;;
48423;SDS011;34232;42.502;26.014;2024-03-23T14:44:42;2.00;;;0.40;;
48423;SDS011;34232;42.502;26.014;2024-03-23T14:47:07;1.33;;;0.50;;
48423;SDS011;34232;42.502;26.014;2024-03-23T14:49:33;1.70;;;0.80;;
48423;SDS011;34232;42.502;26.014;2024-03-23T14:51:58;1.53;;;0.40;;
48423;SDS011;34232;42.502;26.014;2024-03-23T14:54:24;1.67;;;0.30;;
48423;SDS011;34232;42.502;26.014;2024-03-23T14:56:49;4.17;;;0.50;;
48423;SDS011;34232;42.502;26.014;2024-03-23T14:59:15;0.80;;;0.67;;
48423;SDS011;34232;42.502;26.014;2024-03-23T15:01:40;2.60;;;0.60;;
48423;SDS011;34232;42.502;26.014;2024-03-23T15:04:06;2.53;;;0.70;;
48423;SDS011;34232;42.502;26.014;2024-03-23T15:06:32;1.60;;;0.60;;
48423;SDS011;34232;42.502;26.014;2024-03-23T15:08:58;1.38;;;0.45;;
48423;SDS011;34232;42.502;26.014;2024-03-23T15:11:24;4.00;;;0.35;;
48423;SDS011;34232;42.502;26.014;2024-03-23T15:13:50;1.07;;;0.40;;
48423;SDS011;34232;42.502;26.014;2024-03-23T15:16:16;2.47;;;0.50;;
48423;SDS011;34232;42.502;26.014;2024-03-23T15:18:45;3.08;;;0.40;;
48423;SDS011;34232;42.502;26.014;2024-03-23T15:21:10;1.27;;;0.47;;
48423;SDS011;34232;42.502;26.014;2024-03-23T15:23:37;6.45;;;1.25;;
48423;SDS011;34232;42.502;26.014;2024-03-23T15:26:03;4.30;;;0.60;;
48423;SDS011;34232;42.502;26.014;2024-03-23T15:28:30;1.38;;;0.50;;
48423;SDS011;34232;42.502;26.014;2024-03-23T15:31:27;1.40;;;0.50;;
48423;SDS011;34232;42.502;26.014;2024-03-23T15:33:53;0.55;;;0.47;;
48423;SDS011;34232;42.502;26.014;2024-03-23T15:36:18;4.97;;;1.10;;